Time;durP1;ratioP1;P1;durP2;ratioP2;P2;SDS_P1;SDS_P2;PMS_P1;PMS_P2;Temp;Humidity;BMP_temperature;BMP_pressure;BME280_temperature;BME280_humidity;BME280_pressure;Samples;Min_cycle;Max_cycle;Signal;HPM_P1;HPM_P2
2021/12/27 00:02:00;;;;;;;29.87;12.77;;;-6.00;99.90;;;;;;5089869;28;20174;-69
2021/12/27 00:04:25;;;;;;;34.70;15.27;;;-6.00;99.90;;;;;;5090187;28;20199;-70
2021/12/27 00:06:51;;;;;;;39.47;16.83;;;-6.00;99.90;;;;;;5089674;28;20174;-69
2021/12/27 00:09:16;;;;;;;39.80;16.33;;;-6.00;99.90;;;;;;5093309;28;20257;-70
2021/12/27 00:11:43;;;;;;;45.60;18.80;;;-6.00;99.90;;;;;;5093903;28;20207;-70
2021/12/27 00:14:08;;;;;;;38.33;16.03;;;-6.00;99.90;;;;;;5094895;28;20215;-70
2021/12/27 00:16:34;;;;;;;42.17;14.77;;;-6.00;99.90;;;;;;5093600;28;20215;-71
2021/12/27 00:18:59;;;;;;;45.13;18.37;;;-6.10;99.90;;;;;;5093154;28;20174;-70
2021/12/27 00:21:25;;;;;;;43.23;19.10;;;-6.10;99.90;;;;;;5094807;28;20173;-70
2021/12/27 00:23:50;;;;;;;39.50;18.63;;;-6.10;99.90;;;;;;5093184;28;20206;-70
2021/12/27 00:26:16;;;;;;;44.07;19.17;;;-6.10;99.90;;;;;;5093360;28;20178;-70
2021/12/27 00:28:41;;;;;;;40.80;17.37;;;-6.10;99.90;;;;;;5094485;28;20212;-70
2021/12/27 00:31:07;;;;;;;43.03;18.63;;;-6.10;99.90;;;;;;5093449;28;20190;-70
2021/12/27 00:33:32;;;;;;;38.67;17.93;;;-6.10;99.90;;;;;;5094841;28;20274;-70
2021/12/27 00:35:59;;;;;;;42.60;17.70;;;-6.10;99.90;;;;;;5095030;28;20167;-70
2021/12/27 00:38:24;;;;;;;44.73;18.90;;;-6.00;99.90;;;;;;5093352;28;20166;-70
2021/12/27 00:40:50;;;;;;;42.53;19.87;;;-6.10;99.90;;;;;;5093531;28;20223;-70
2021/12/27 00:43:16;;;;;;;51.13;20.33;;;-6.10;99.90;;;;;;5093318;28;20191;-71
2021/12/27 00:45:43;;;;;;;35.03;17.57;;;-6.00;99.90;;;;;;5094511;28;20580;-70
2021/12/27 00:48:09;;;;;;;42.33;18.30;;;-6.00;99.90;;;;;;5092837;28;20176;-70
2021/12/27 00:50:34;;;;;;;46.80;19.23;;;-6.10;99.90;;;;;;5093280;28;20195;-70
2021/12/27 00:53:00;;;;;;;45.83;18.53;;;-6.10;99.90;;;;;;5092950;28;20162;-72
2021/12/27 00:55:26;;;;;;;44.63;18.77;;;-6.10;99.90;;;;;;5093322;28;20178;-70
2021/12/27 00:57:53;;;;;;;44.60;17.30;;;-6.10;99.90;;;;;;5092467;28;20580;-70
2021/12/27 01:00:21;;;;;;;42.03;17.70;;;-6.10;99.90;;;;;;5093053;28;20171;-69
2021/12/27 01:02:47;;;;;;;39.03;17.23;;;-6.10;99.90;;;;;;5092721;28;20191;-71
2021/12/27 01:05:14;;;;;;;51.63;20.00;;;-6.10;99.90;;;;;;5093013;28;20201;-70
2021/12/27 01:07:40;;;;;;;49.07;20.40;;;-6.20;99.90;;;;;;5092347;28;20228;-70
2021/12/27 01:13:02;;;;;;;41.83;18.40;;;-6.10;99.90;;;;;;5093717;28;20631;-70
2021/12/27 01:15:47;;;;;;;53.07;21.27;;;-6.20;99.90;;;;;;5094064;28;20533;-70
2021/12/27 01:18:13;;;;;;;52.83;22.63;;;-6.20;99.90;;;;;;5091648;28;20206;-70
2021/12/27 01:20:39;;;;;;;48.03;20.33;;;-6.20;99.90;;;;;;5091643;28;20274;-70
2021/12/27 01:23:04;;;;;;;47.07;19.13;;;-6.20;99.90;;;;;;5091712;28;20194;-71
2021/12/27 01:25:30;;;;;;;54.00;21.23;;;-6.20;99.90;;;;;;5093529;28;20584;-70
2021/12/27 01:27:56;;;;;;;48.93;20.37;;;-6.20;99.90;;;;;;5091622;28;20249;-70
2021/12/27 01:30:22;;;;;;;44.13;18.50;;;-6.20;99.90;;;;;;5092198;28;20453;-70
2021/12/27 01:32:54;;;;;;;48.07;19.97;;;-6.20;99.90;;;;;;5092224;28;20218;-70
2021/12/27 01:35:21;;;;;;;47.33;21.40;;;-6.30;99.90;;;;;;5092101;28;20194;-70
2021/12/27 01:37:50;;;;;;;45.60;20.67;;;-6.30;99.90;;;;;;5092643;28;20161;-70
2021/12/27 01:40:17;;;;;;;50.87;21.60;;;-6.20;99.90;;;;;;5091890;28;20232;-71
2021/12/27 01:43:08;;;;;;;58.17;20.10;;;-6.20;99.90;;;;;;5091684;28;20166;-70
2021/12/27 01:45:36;;;;;;;53.43;22.60;;;-6.20;99.90;;;;;;5092246;28;20166;-70
2021/12/27 01:48:03;;;;;;;51.20;21.50;;;-6.20;99.90;;;;;;5091343;28;20382;-70
2021/12/27 01:50:28;;;;;;;51.27;21.27;;;-6.10;99.90;;;;;;5093045;28;20689;-70
2021/12/27 01:52:54;;;;;;;53.03;23.07;;;-6.10;99.90;;;;;;5092906;28;20170;-70
2021/12/27 01:55:20;;;;;;;37.70;16.87;;;-6.10;99.90;;;;;;5093203;28;20356;-70
2021/12/27 01:57:45;;;;;;;56.30;22.97;;;-6.10;99.90;;;;;;5091750;28;20183;-72
2021/12/27 02:00:12;;;;;;;59.10;23.97;;;-6.10;99.90;;;;;;5090398;28;20170;-71
2021/12/27 02:02:37;;;;;;;53.80;24.30;;;-6.10;99.90;;;;;;5088710;28;20170;-70
2021/12/27 02:05:03;;;;;;;53.17;22.23;;;-6.00;99.90;;;;;;5090180;28;20296;-71
2021/12/27 02:07:28;;;;;;;55.30;22.47;;;-6.00;99.90;;;;;;5091534;28;20755;-70
2021/12/27 02:10:02;;;;;;;55.93;24.00;;;-6.00;99.90;;;;;;5092550;28;20171;-70
2021/12/27 02:12:28;;;;;;;55.97;23.10;;;-6.00;99.90;;;;;;5091217;28;20174;-70
2021/12/27 02:14:55;;;;;;;51.87;23.37;;;-6.00;99.90;;;;;;5091301;28;20195;-70
2021/12/27 02:17:21;;;;;;;54.97;23.93;;;-6.00;99.90;;;;;;5090894;28;20185;-70
2021/12/27 02:19:49;;;;;;;59.63;24.50;;;-6.00;99.90;;;;;;5090940;28;20171;-70
2021/12/27 02:22:14;;;;;;;54.20;21.87;;;-6.00;99.90;;;;;;5092285;28;20178;-71
2021/12/27 02:24:40;;;;;;;43.60;19.17;;;-6.10;99.90;;;;;;5090939;28;20218;-70
2021/12/27 02:27:06;;;;;;;51.97;22.90;;;-6.00;99.90;;;;;;5090952;28;20231;-70
2021/12/27 02:29:32;;;;;;;56.33;22.23;;;-6.10;99.90;;;;;;5091978;28;20182;-70
2021/12/27 02:31:58;;;;;;;54.70;24.40;;;-6.00;99.90;;;;;;5090614;28;20206;-70
2021/12/27 02:34:23;;;;;;;56.63;24.70;;;-6.00;99.90;;;;;;5090858;28;20548;-71
2021/12/27 02:36:49;;;;;;;51.47;22.77;;;-6.00;99.90;;;;;;5092130;28;20208;-70
2021/12/27 02:39:16;;;;;;;54.67;23.87;;;-5.90;99.90;;;;;;5090324;28;20173;-70
2021/12/27 02:41:41;;;;;;;56.13;18.83;;;-5.90;99.90;;;;;;5090836;28;20178;-70
2021/12/27 02:44:07;;;;;;;54.07;24.10;;;-5.80;99.90;;;;;;5090690;28;20549;-70
2021/12/27 02:46:32;;;;;;;51.50;23.23;;;-5.80;99.90;;;;;;5090896;28;20529;-70
2021/12/27 02:48:58;;;;;;;53.83;24.17;;;-5.80;99.90;;;;;;5090330;28;20266;-72
2021/12/27 02:51:23;;;;;;;50.17;24.17;;;-5.70;99.90;;;;;;5090604;28;20259;-70
2021/12/27 02:53:49;;;;;;;51.30;24.37;;;-5.80;99.90;;;;;;5090476;28;20194;-70
2021/12/27 02:56:17;;;;;;;48.37;20.27;;;-5.70;99.90;;;;;;5090864;28;20183;-70
2021/12/27 02:58:43;;;;;;;51.17;23.40;;;-5.60;99.90;;;;;;5090402;28;20302;-70
2021/12/27 03:01:12;;;;;;;47.30;22.40;;;-5.60;99.90;;;;;;5090674;28;20595;-70
2021/12/27 03:03:39;;;;;;;49.67;22.57;;;-5.70;99.90;;;;;;5090714;28;20221;-70
2021/12/27 03:06:06;;;;;;;47.30;22.70;;;-5.70;99.90;;;;;;5091885;28;20175;-70
2021/12/27 03:08:33;;;;;;;47.30;21.77;;;-5.60;99.90;;;;;;5089909;28;20201;-70
2021/12/27 03:11:00;;;;;;;59.40;24.57;;;-5.60;99.90;;;;;;5090264;28;20658;-70
2021/12/27 03:13:34;;;;;;;58.37;23.77;;;-5.60;99.90;;;;;;5090046;28;20674;-72
2021/12/27 03:16:20;;;;;;;48.53;20.87;;;-5.60;99.90;;;;;;5090524;28;20269;-71
2021/12/27 03:18:49;;;;;;;51.87;23.27;;;-5.60;99.90;;;;;;5108500;28;20189;-70
2021/12/27 03:21:15;;;;;;;50.43;23.17;;;-5.50;99.90;;;;;;5110530;28;20189;-70
2021/12/27 03:23:43;;;;;;;59.23;26.13;;;-5.60;99.90;;;;;;5110296;28;20205;-70
2021/12/27 03:26:09;;;;;;;53.87;24.23;;;-5.60;99.90;;;;;;5112025;28;20645;-72
2021/12/27 03:28:36;;;;;;;58.17;23.77;;;-5.50;99.90;;;;;;5111629;28;20213;-71
2021/12/27 03:31:02;;;;;;;48.20;22.97;;;-5.60;99.90;;;;;;5110534;28;20197;-71
2021/12/27 03:33:28;;;;;;;51.50;25.13;;;-5.60;99.90;;;;;;5110571;28;20240;-70
2021/12/27 03:36:06;;;;;;;52.90;23.23;;;-5.60;99.90;;;;;;5112989;28;20166;-72
2021/12/27 03:38:38;;;;;;;60.20;24.43;;;-5.50;99.90;;;;;;5119985;28;20177;-72
2021/12/27 03:41:12;;;;;;;51.70;23.23;;;-5.50;99.90;;;;;;5120945;28;20216;-72
2021/12/27 03:43:38;;;;;;;59.17;25.67;;;-5.50;99.90;;;;;;5122841;28;20234;-72
2021/12/27 03:46:04;;;;;;;54.40;23.87;;;-5.50;99.90;;;;;;5122239;28;20174;-71
2021/12/27 03:48:30;;;;;;;54.13;23.97;;;-5.50;99.90;;;;;;5123202;28;20205;-71
2021/12/27 03:50:56;;;;;;;61.30;22.93;;;-5.40;99.90;;;;;;5124752;28;20202;-72
2021/12/27 03:53:22;;;;;;;51.70;22.63;;;-5.50;99.90;;;;;;5125263;28;20196;-71
2021/12/27 03:55:47;;;;;;;61.33;26.13;;;-5.50;99.90;;;;;;5127266;28;20166;-72
2021/12/27 03:58:25;;;;;;;55.53;23.60;;;-5.50;99.90;;;;;;5125059;28;20652;-73
2021/12/27 04:03:20;;;;;;;54.23;24.07;;;-5.40;99.90;;;;;;5126275;28;20215;-72
2021/12/27 04:05:46;;;;;;;52.47;22.10;;;-5.40;99.90;;;;;;5116797;28;20178;-70
2021/12/27 04:08:13;;;;;;;51.93;22.70;;;-5.30;99.90;;;;;;5125370;28;20182;-71
2021/12/27 04:10:40;;;;;;;59.50;24.70;;;-5.40;99.90;;;;;;5125059;28;20210;-71
2021/12/27 04:13:08;;;;;;;53.17;21.60;;;-5.40;99.90;;;;;;5124851;28;20234;-71
2021/12/27 04:15:34;;;;;;;54.73;24.30;;;-5.40;99.90;;;;;;5125565;28;20170;-71
2021/12/27 04:18:00;;;;;;;51.00;23.70;;;-5.40;99.90;;;;;;5122284;28;20618;-71
2021/12/27 04:20:26;;;;;;;47.27;23.50;;;-5.30;99.90;;;;;;5116777;28;20642;-69
2021/12/27 04:22:52;;;;;;;48.97;22.57;;;-5.30;99.90;;;;;;5115054;28;20194;-70
2021/12/27 04:25:19;;;;;;;55.63;24.17;;;-5.30;99.90;;;;;;5117657;28;20217;-70
2021/12/27 04:27:46;;;;;;;56.27;23.57;;;-5.30;99.90;;;;;;5113614;28;20245;-71
2021/12/27 04:30:12;;;;;;;53.03;23.10;;;-5.40;99.90;;;;;;5114900;28;20189;-71
2021/12/27 04:32:37;;;;;;;58.90;22.90;;;-5.30;99.90;;;;;;5131765;28;20171;-72
2021/12/27 04:35:04;;;;;;;50.53;21.43;;;-5.30;99.90;;;;;;5131437;28;20189;-72
2021/12/27 04:37:29;;;;;;;57.73;25.13;;;-5.30;99.90;;;;;;5131924;27;20201;-72
2021/12/27 04:39:56;;;;;;;56.77;24.10;;;-5.30;99.90;;;;;;5131420;28;20170;-71
2021/12/27 04:42:23;;;;;;;63.67;25.00;;;-5.30;99.90;;;;;;5132738;28;20177;-71
2021/12/27 04:44:48;;;;;;;62.03;25.53;;;-5.30;99.90;;;;;;5131625;28;20200;-71
2021/12/27 04:47:16;;;;;;;53.83;23.20;;;-5.20;99.90;;;;;;5130629;28;20179;-72
2021/12/27 04:49:42;;;;;;;52.10;22.53;;;-5.20;99.90;;;;;;5131795;28;20253;-71
2021/12/27 04:52:09;;;;;;;54.33;24.93;;;-5.20;99.90;;;;;;5132886;28;20205;-72
2021/12/27 04:54:34;;;;;;;54.23;22.57;;;-5.10;99.90;;;;;;5131032;28;20249;-72
2021/12/27 04:57:00;;;;;;;49.40;22.27;;;-5.10;99.90;;;;;;5130431;28;20166;-71
2021/12/27 04:59:26;;;;;;;49.70;20.77;;;-5.20;99.90;;;;;;5130162;28;20189;-71
2021/12/27 05:01:51;;;;;;;53.67;21.70;;;-5.20;99.90;;;;;;5126843;28;20225;-71
2021/12/27 05:04:17;;;;;;;56.87;23.73;;;-5.30;99.90;;;;;;5102035;28;20205;-73
2021/12/27 05:06:42;;;;;;;58.93;24.43;;;-5.20;99.90;;;;;;5118541;28;20178;-71
2021/12/27 05:09:08;;;;;;;49.87;24.27;;;-5.20;99.90;;;;;;5117717;28;20620;-71
2021/12/27 05:11:34;;;;;;;59.00;23.83;;;-5.10;99.90;;;;;;5120119;28;20212;-73
2021/12/27 05:13:59;;;;;;;59.90;25.10;;;-5.20;99.90;;;;;;5119926;28;20247;-71
2021/12/27 05:16:25;;;;;;;60.13;26.67;;;-5.10;99.90;;;;;;5119668;28;20245;-72
2021/12/27 05:18:50;;;;;;;56.97;23.37;;;-5.10;99.90;;;;;;5118864;28;20174;-71
2021/12/27 05:21:16;;;;;;;56.73;25.43;;;-5.10;99.90;;;;;;5121447;28;20216;-71
2021/12/27 05:23:41;;;;;;;61.07;24.57;;;-5.10;99.90;;;;;;5124965;28;20228;-71
2021/12/27 05:26:07;;;;;;;59.17;25.63;;;-5.10;99.90;;;;;;5124365;28;20623;-71
2021/12/27 05:28:32;;;;;;;58.97;23.33;;;-5.10;99.90;;;;;;5123952;28;20179;-71
2021/12/27 05:30:58;;;;;;;45.40;21.50;;;-5.00;99.90;;;;;;5123209;28;20191;-71
2021/12/27 05:33:23;;;;;;;64.70;23.10;;;-5.00;99.90;;;;;;5121811;28;20252;-71
2021/12/27 05:35:49;;;;;;;54.70;22.23;;;-5.00;99.90;;;;;;5100388;28;20205;-71
2021/12/27 05:38:15;;;;;;;65.63;24.77;;;-4.90;99.90;;;;;;5117972;28;20210;-71
2021/12/27 05:40:40;;;;;;;56.70;22.90;;;-4.90;99.90;;;;;;5119075;28;20175;-72
2021/12/27 05:43:07;;;;;;;53.77;24.50;;;-4.80;99.90;;;;;;5117010;28;20181;-71
2021/12/27 05:45:35;;;;;;;57.03;25.07;;;-4.90;99.90;;;;;;5101032;28;20179;-71
2021/12/27 05:48:00;;;;;;;59.33;25.47;;;-4.80;99.90;;;;;;5100715;28;20242;-72
2021/12/27 05:50:26;;;;;;;52.60;24.67;;;-4.80;99.90;;;;;;5119473;28;20195;-72
2021/12/27 05:52:53;;;;;;;51.53;21.67;;;-4.70;99.90;;;;;;5101155;28;20179;-71
2021/12/27 05:55:18;;;;;;;54.37;23.77;;;-4.80;99.90;;;;;;5119380;28;20221;-72
2021/12/27 05:57:44;;;;;;;59.30;25.53;;;-4.70;99.90;;;;;;5119023;28;20549;-72
2021/12/27 06:00:11;;;;;;;55.10;25.17;;;-4.70;99.90;;;;;;5117912;28;20177;-71
2021/12/27 06:02:37;;;;;;;59.07;25.53;;;-4.70;99.90;;;;;;5119515;28;20195;-71
2021/12/27 06:05:03;;;;;;;60.53;26.87;;;-4.60;99.90;;;;;;5117594;28;20278;-72
2021/12/27 06:07:30;;;;;;;56.00;25.10;;;-4.60;99.90;;;;;;5116748;28;20167;-71
2021/12/27 06:09:56;;;;;;;57.97;24.70;;;-4.70;99.90;;;;;;5116478;28;20253;-72
2021/12/27 06:12:22;;;;;;;58.63;24.63;;;-4.50;99.90;;;;;;5116937;28;20248;-71
2021/12/27 06:14:47;;;;;;;59.67;25.73;;;-4.70;99.90;;;;;;5116983;28;20191;-72
2021/12/27 06:17:13;;;;;;;66.72;32.90;;;-4.60;99.90;;;;;;5117800;28;20403;-72
2021/12/27 06:19:39;;;;;;;56.33;25.57;;;-4.50;99.90;;;;;;5116470;28;20170;-72
2021/12/27 06:22:05;;;;;;;50.07;24.20;;;-4.50;99.90;;;;;;5117492;28;20167;-71
2021/12/27 06:24:30;;;;;;;54.77;24.50;;;-4.40;99.90;;;;;;5062435;28;1077860;-71
2021/12/27 06:26:56;;;;;;;57.47;25.40;;;-4.40;99.90;;;;;;5117750;28;20179;-72
2021/12/27 06:29:22;;;;;;;60.73;24.40;;;-4.40;99.90;;;;;;5117442;28;20372;-72
2021/12/27 06:31:48;;;;;;;58.90;25.60;;;-4.40;99.90;;;;;;5117442;28;20213;-71
2021/12/27 06:34:14;;;;;;;53.30;24.20;;;-4.40;99.90;;;;;;5117085;28;20335;-71
2021/12/27 06:36:40;;;;;;;54.37;24.03;;;-4.40;99.90;;;;;;5119843;28;20175;-71
2021/12/27 06:39:06;;;;;;;57.43;25.20;;;-4.30;99.90;;;;;;5116793;28;20174;-71
2021/12/27 06:41:32;;;;;;;56.20;24.93;;;-4.40;99.90;;;;;;5117222;28;20193;-71
2021/12/27 06:43:58;;;;;;;56.67;23.93;;;-4.30;99.90;;;;;;5117119;28;20186;-71
2021/12/27 06:46:23;;;;;;;54.03;24.00;;;-4.30;99.90;;;;;;5116234;28;20251;-72
2021/12/27 06:48:49;;;;;;;55.70;25.53;;;-4.20;99.90;;;;;;5115854;28;20210;-71
2021/12/27 06:51:15;;;;;;;53.27;26.50;;;-4.20;99.90;;;;;;5099645;28;20217;-72
2021/12/27 06:53:40;;;;;;;50.90;24.43;;;-4.20;99.90;;;;;;5117807;28;20188;-72
2021/12/27 06:56:06;;;;;;;58.00;24.23;;;-4.10;99.90;;;;;;5117796;28;20175;-72
2021/12/27 06:58:32;;;;;;;55.07;23.50;;;-4.10;99.90;;;;;;5116506;28;20313;-72
2021/12/27 07:00:57;;;;;;;55.73;25.47;;;-4.10;99.90;;;;;;5121324;28;20180;-71
2021/12/27 07:03:23;;;;;;;58.70;23.47;;;-4.10;99.90;;;;;;5105033;28;20202;-72
2021/12/27 07:05:49;;;;;;;52.03;23.77;;;-4.10;99.90;;;;;;5122145;28;20172;-71
2021/12/27 07:08:16;;;;;;;57.47;26.07;;;-4.10;99.90;;;;;;5121393;28;20192;-71
2021/12/27 07:10:42;;;;;;;59.37;24.73;;;-4.00;99.90;;;;;;5123217;28;20195;-72
2021/12/27 07:13:09;;;;;;;59.37;24.47;;;-4.00;99.90;;;;;;5117282;28;20173;-71
2021/12/27 07:15:41;;;;;;;63.13;25.43;;;-4.00;99.90;;;;;;5118355;28;20178;-71
2021/12/27 07:18:10;;;;;;;57.47;24.37;;;-4.00;99.90;;;;;;5117645;28;20183;-72
2021/12/27 07:20:36;;;;;;;55.17;24.30;;;-4.00;99.90;;;;;;5118633;28;20229;-71
2021/12/27 07:23:04;;;;;;;55.17;25.30;;;-3.90;99.90;;;;;;5117794;28;20216;-71
2021/12/27 07:25:30;;;;;;;64.77;25.60;;;-4.00;99.90;;;;;;5118959;28;20186;-71
2021/12/27 07:27:56;;;;;;;53.70;25.33;;;-3.90;99.90;;;;;;5119193;28;20766;-71
2021/12/27 07:30:22;;;;;;;64.27;25.67;;;-3.80;99.90;;;;;;5119947;28;20183;-72
2021/12/27 07:32:48;;;;;;;58.37;24.43;;;-3.90;99.90;;;;;;5119994;28;20241;-72
2021/12/27 07:35:14;;;;;;;49.67;24.13;;;-3.90;99.90;;;;;;5120040;28;20194;-71
2021/12/27 07:37:40;;;;;;;55.03;23.37;;;-3.90;99.90;;;;;;5119596;28;20176;-70
2021/12/27 07:40:06;;;;;;;57.73;24.47;;;-3.90;99.90;;;;;;5119850;28;20243;-71
2021/12/27 07:42:32;;;;;;;58.10;26.77;;;-3.80;99.90;;;;;;5121417;28;20184;-72
2021/12/27 07:44:58;;;;;;;53.53;21.90;;;-3.80;99.90;;;;;;5119609;28;20232;-72
2021/12/27 07:47:24;;;;;;;61.53;24.60;;;-3.80;99.90;;;;;;5120135;28;20655;-72
2021/12/27 07:49:49;;;;;;;62.90;27.37;;;-3.80;99.90;;;;;;5120803;28;20171;-71
2021/12/27 07:52:15;;;;;;;60.17;25.73;;;-3.70;99.90;;;;;;5119421;28;20219;-71
2021/12/27 07:54:40;;;;;;;58.90;25.20;;;-3.70;99.90;;;;;;5120793;28;20206;-72
2021/12/27 07:57:06;;;;;;;60.20;25.60;;;-3.80;99.90;;;;;;5121719;28;20176;-71
2021/12/27 07:59:31;;;;;;;58.23;22.87;;;-3.70;99.90;;;;;;5118892;28;20167;-71
2021/12/27 08:01:57;;;;;;;53.47;23.63;;;-3.70;99.90;;;;;;5102856;28;20612;-71
2021/12/27 08:04:23;;;;;;;58.83;25.03;;;-3.70;99.90;;;;;;5103407;28;20248;-71
2021/12/27 08:06:50;;;;;;;56.40;24.93;;;-3.70;99.90;;;;;;5119434;28;20203;-71
2021/12/27 08:09:15;;;;;;;56.20;25.33;;;-3.60;99.90;;;;;;5120947;28;20655;-71
2021/12/27 08:11:41;;;;;;;60.77;25.17;;;-3.70;99.90;;;;;;5102604;28;20208;-71
2021/12/27 08:14:07;;;;;;;59.73;25.50;;;-3.70;99.90;;;;;;5119990;28;20280;-71
2021/12/27 08:16:32;;;;;;;58.20;24.97;;;-3.60;99.90;;;;;;5121767;28;20176;-74
2021/12/27 08:18:58;;;;;;;58.77;25.90;;;-3.60;99.90;;;;;;5119336;28;20180;-71
2021/12/27 08:21:25;;;;;;;55.23;25.77;;;-3.60;99.90;;;;;;5120228;28;20272;-71
2021/12/27 08:23:51;;;;;;;53.40;24.13;;;-3.50;99.90;;;;;;5120547;28;20213;-71
2021/12/27 08:26:18;;;;;;;53.43;24.63;;;-3.50;99.90;;;;;;5119970;28;20195;-71
2021/12/27 08:28:45;;;;;;;51.83;23.37;;;-3.40;99.90;;;;;;5121788;28;20191;-71
2021/12/27 08:31:11;;;;;;;51.17;26.43;;;-3.40;99.90;;;;;;5125419;28;20203;-72
2021/12/27 08:33:36;;;;;;;50.80;22.73;;;-3.40;99.90;;;;;;5107641;28;20218;-71
2021/12/27 08:36:02;;;;;;;55.17;25.40;;;-3.40;99.90;;;;;;5125173;27;20187;-71
2021/12/27 08:38:27;;;;;;;54.50;22.27;;;-3.40;99.90;;;;;;5123242;28;20175;-71
2021/12/27 08:40:53;;;;;;;58.57;25.07;;;-3.30;99.90;;;;;;5124707;28;20188;-71
2021/12/27 08:43:19;;;;;;;54.90;23.63;;;-3.40;99.90;;;;;;5122704;28;20211;-71
2021/12/27 08:45:44;;;;;;;59.23;25.63;;;-3.40;99.90;;;;;;5123091;28;20176;-70
2021/12/27 08:48:10;;;;;;;53.07;25.23;;;-3.30;99.90;;;;;;5123625;28;20183;-71
2021/12/27 08:50:37;;;;;;;51.40;25.73;;;-3.20;99.90;;;;;;5125220;28;20275;-71
2021/12/27 08:53:06;;;;;;;56.83;25.57;;;-3.20;99.90;;;;;;5123149;28;20621;-71
2021/12/27 08:55:33;;;;;;;58.93;25.27;;;-3.20;99.90;;;;;;5124214;28;20176;-71
2021/12/27 08:57:58;;;;;;;57.63;24.77;;;-3.20;99.90;;;;;;5123108;28;20173;-72
2021/12/27 09:00:24;;;;;;;49.00;24.07;;;-3.10;99.90;;;;;;5124997;28;20181;-71
2021/12/27 09:02:50;;;;;;;56.87;22.47;;;-3.10;99.90;;;;;;5122166;28;20194;-71
2021/12/27 09:05:15;;;;;;;50.03;24.80;;;-3.10;99.90;;;;;;5126174;28;20199;-71
2021/12/27 09:07:41;;;;;;;57.30;25.60;;;-3.10;99.90;;;;;;5124364;28;20173;-70
2021/12/27 09:10:08;;;;;;;55.53;25.67;;;-3.10;99.90;;;;;;5125265;28;20632;-71
2021/12/27 09:12:34;;;;;;;58.80;25.40;;;-3.00;99.90;;;;;;5125157;28;20204;-72
2021/12/27 09:14:59;;;;;;;53.50;24.40;;;-3.00;99.90;;;;;;5124027;28;20198;-71
2021/12/27 09:17:25;;;;;;;50.57;25.57;;;-2.90;99.90;;;;;;5123949;28;20173;-71
2021/12/27 09:19:50;;;;;;;56.43;25.17;;;-2.90;99.90;;;;;;5121901;28;20166;-71
2021/12/27 09:22:17;;;;;;;52.00;23.77;;;-2.90;99.90;;;;;;5104294;28;20226;-71
2021/12/27 09:24:42;;;;;;;51.90;24.43;;;-2.90;99.90;;;;;;5122209;28;20279;-71
2021/12/27 09:27:08;;;;;;;56.43;24.87;;;-2.90;99.90;;;;;;5124314;28;20180;-71
2021/12/27 09:29:34;;;;;;;58.63;24.83;;;-2.80;99.90;;;;;;5121586;28;20176;-71
2021/12/27 09:32:00;;;;;;;58.13;26.27;;;-2.80;99.90;;;;;;5122094;28;20200;-71
2021/12/27 09:34:25;;;;;;;65.27;25.83;;;-2.70;99.90;;;;;;5122234;28;20188;-71
2021/12/27 09:36:51;;;;;;;58.00;24.40;;;-2.70;99.90;;;;;;5123172;28;20571;-71
2021/12/27 09:39:17;;;;;;;52.00;24.00;;;-2.60;99.90;;;;;;5118997;28;20264;-71
2021/12/27 09:41:43;;;;;;;44.93;22.10;;;-2.60;99.90;;;;;;5120795;28;20185;-71
2021/12/27 09:44:09;;;;;;;54.87;24.00;;;-2.60;99.90;;;;;;5120037;28;20196;-71
2021/12/27 09:46:34;;;;;;;54.50;24.20;;;-2.60;99.90;;;;;;5122519;28;20259;-72
2021/12/27 09:49:04;;;;;;;55.17;24.67;;;-2.50;99.90;;;;;;5120667;28;20185;-72
2021/12/27 09:51:30;;;;;;;59.30;23.40;;;-2.50;99.90;;;;;;5122866;28;20196;-72
2021/12/27 09:53:56;;;;;;;51.90;23.97;;;-2.60;99.90;;;;;;5122066;28;20189;-73
2021/12/27 09:56:22;;;;;;;56.30;24.00;;;-2.60;99.90;;;;;;5120738;28;20267;-72
2021/12/27 09:58:47;;;;;;;46.60;22.07;;;-2.60;99.90;;;;;;5121195;27;20176;-72
2021/12/27 10:01:13;;;;;;;46.93;22.93;;;-2.50;99.90;;;;;;5088073;28;20185;-72
2021/12/27 10:03:53;;;;;;;49.80;24.07;;;-2.50;99.90;;;;;;5120008;28;20196;-71
2021/12/27 10:06:22;;;;;;;50.03;23.43;;;-2.50;99.90;;;;;;5120718;28;20187;-72
2021/12/27 10:08:55;;;;;;;51.87;22.60;;;-2.40;99.90;;;;;;5122348;28;20233;-72
2021/12/27 10:11:36;;;;;;;53.33;22.90;;;-2.30;99.90;;;;;;5120331;28;20203;-72
2021/12/27 10:14:07;;;;;;;52.80;21.80;;;-2.40;99.90;;;;;;5122044;28;20188;-72
2021/12/27 10:16:37;;;;;;;50.53;23.63;;;-2.40;99.90;;;;;;5122096;28;20184;-72
2021/12/27 10:19:06;;;;;;;59.17;25.37;;;-2.30;99.90;;;;;;5106030;28;20202;-72
2021/12/27 10:21:33;;;;;;;47.33;21.87;;;-2.20;99.90;;;;;;5122821;28;20698;-73
2021/12/27 10:24:16;;;;;;;56.70;26.03;;;-2.10;99.90;;;;;;5121645;28;20216;-70
2021/12/27 10:26:47;;;;;;;51.03;22.40;;;-2.00;99.90;;;;;;5113121;28;20207;-70
2021/12/27 10:29:17;;;;;;;52.67;23.33;;;-2.00;99.90;;;;;;5111082;28;20184;-70
2021/12/27 10:32:04;;;;;;;49.20;22.67;;;-1.90;99.90;;;;;;5111383;28;20205;-70
2021/12/27 10:34:35;;;;;;;54.50;25.40;;;-1.80;99.90;;;;;;5112948;28;20547;-70
2021/12/27 10:37:20;;;;;;;54.63;24.50;;;-1.70;99.90;;;;;;5111494;28;20184;-70
2021/12/27 10:40:19;;;;;;;53.70;25.17;;;-1.50;99.90;;;;;;5111053;28;20173;-70
2021/12/27 10:42:47;;;;;;;53.20;23.80;;;-1.40;99.90;;;;;;5067345;28;20212;-71
2021/12/27 10:45:20;;;;;;;49.07;22.73;;;-1.10;99.90;;;;;;5110830;28;20211;-70
2021/12/27 10:48:02;;;;;;;52.53;23.40;;;-1.00;99.90;;;;;;5112248;28;20174;-71
2021/12/27 10:50:34;;;;;;;50.37;24.07;;;-1.20;99.90;;;;;;5112361;28;20180;-72
2021/12/27 10:53:05;;;;;;;53.80;24.13;;;-1.20;99.90;;;;;;5110392;28;20236;-69
2021/12/27 10:55:38;;;;;;;48.47;22.33;;;-1.30;99.90;;;;;;5110593;28;20178;-71
2021/12/27 10:58:25;;;;;;;53.97;23.77;;;-1.20;99.90;;;;;;5110406;28;20174;-71
2021/12/27 11:01:03;;;;;;;58.43;24.03;;;-1.30;99.90;;;;;;5106645;28;20234;-70
2021/12/27 11:03:42;;;;;;;50.43;23.87;;;-1.40;99.90;;;;;;5088736;28;20198;-72
2021/12/27 11:06:09;;;;;;;54.90;24.03;;;-1.40;99.90;;;;;;5091082;28;20658;-71
2021/12/27 11:08:38;;;;;;;53.93;24.03;;;-1.40;99.90;;;;;;5089646;28;20171;-72
2021/12/27 11:11:04;;;;;;;49.20;24.83;;;-1.30;99.90;;;;;;5091051;28;20213;-70
2021/12/27 11:13:31;;;;;;;52.97;24.60;;;-1.30;99.90;;;;;;5090240;28;20193;-71
2021/12/27 11:15:57;;;;;;;103.53;47.90;;;-1.30;99.90;;;;;;5091834;28;20538;-72
2021/12/27 11:18:22;;;;;;;53.03;24.27;;;-1.20;99.90;;;;;;5089852;28;20187;-70
2021/12/27 11:20:53;;;;;;;54.83;24.03;;;-1.10;99.90;;;;;;5090032;28;20589;-71
2021/12/27 11:23:21;;;;;;;51.37;22.87;;;-1.10;99.90;;;;;;5089780;28;20205;-72
2021/12/27 11:25:47;;;;;;;56.80;25.57;;;-1.10;99.90;;;;;;5090159;28;20182;-71
2021/12/27 11:28:35;;;;;;;56.47;25.37;;;-1.00;99.90;;;;;;5089814;28;20539;-71
2021/12/27 11:31:05;;;;;;;49.07;23.13;;;-0.90;99.90;;;;;;5089907;28;20225;-71
2021/12/27 11:33:31;;;;;;;48.43;24.03;;;-1.00;99.90;;;;;;5090109;28;20278;-71
2021/12/27 11:35:59;;;;;;;54.20;24.70;;;-0.90;99.90;;;;;;5090635;28;20640;-72
2021/12/27 11:38:40;;;;;;;48.97;23.27;;;-0.90;99.90;;;;;;5089932;28;20565;-72
2021/12/27 11:41:25;;;;;;;49.53;23.53;;;-0.90;99.90;;;;;;5089816;28;20227;-71
2021/12/27 11:43:53;;;;;;;57.80;25.43;;;-0.80;99.90;;;;;;5089779;28;20246;-71
2021/12/27 11:46:30;;;;;;;51.27;24.00;;;-0.90;99.90;;;;;;5091408;28;20646;-72
2021/12/27 11:48:58;;;;;;;47.50;22.03;;;-0.90;99.90;;;;;;5089398;28;20299;-72
2021/12/27 11:51:40;;;;;;;50.73;24.13;;;-0.80;99.90;;;;;;5089818;28;20197;-72
2021/12/27 11:54:26;;;;;;;54.37;24.23;;;-0.80;99.90;;;;;;5090876;28;20219;-71
2021/12/27 11:56:52;;;;;;;50.27;22.80;;;-0.70;99.90;;;;;;5089976;28;20212;-72
2021/12/27 11:59:35;;;;;;;50.30;25.90;;;-0.70;99.90;;;;;;5089288;28;20206;-71
2021/12/27 12:02:15;;;;;;;50.17;23.70;;;-0.60;99.90;;;;;;5090044;28;20179;-72
2021/12/27 12:04:50;;;;;;;45.10;22.90;;;-0.60;99.90;;;;;;5092666;28;20198;-72
2021/12/27 12:07:33;;;;;;;49.30;23.63;;;-0.60;99.90;;;;;;5093818;28;20171;-71
2021/12/27 12:10:16;;;;;;;56.53;25.30;;;-0.60;99.90;;;;;;5094718;28;20170;-72
2021/12/27 12:12:42;;;;;;;52.93;23.03;;;-0.50;99.90;;;;;;5093641;28;20251;-72
2021/12/27 12:15:09;;;;;;;51.73;23.37;;;-0.60;99.90;;;;;;5093556;28;20198;-71
2021/12/27 12:17:48;;;;;;;49.93;23.60;;;-0.60;99.90;;;;;;5093628;28;20170;-71
2021/12/27 12:20:36;;;;;;;44.93;22.33;;;-0.60;99.90;;;;;;5093490;28;20178;-72
2021/12/27 12:23:07;;;;;;;46.37;23.23;;;-0.60;99.90;;;;;;5094582;28;20170;-71
2021/12/27 12:25:34;;;;;;;42.53;22.23;;;-0.60;99.90;;;;;;5093435;28;20174;-71
2021/12/27 12:28:00;;;;;;;49.33;22.40;;;-0.50;99.90;;;;;;5093426;28;20170;-71
2021/12/27 12:30:32;;;;;;;43.77;21.27;;;-0.50;99.90;;;;;;5093140;28;20257;-72
2021/12/27 12:33:22;;;;;;;47.27;22.77;;;-0.50;99.90;;;;;;5094672;28;20523;-72
2021/12/27 12:35:57;;;;;;;45.93;21.13;;;-0.60;99.90;;;;;;5094629;28;20205;-71